Time;durP1;ratioP1;P1;durP2;ratioP2;P2;SDS_P1;SDS_P2;PMS_P1;PMS_P2;Temp;Humidity;BMP_temperature;BMP_pressure;BME280_temperature;BME280_humidity;BME280_pressure;Samples;Min_cycle;Max_cycle;Signal;HPM_P1;HPM_P2
2022/01/17 00:00:24;;;;;;;10.52;5.80;;;;;;;;;;4959595;28;20556;-87
2022/01/17 00:02:51;;;;;;;8.82;5.95;;;;;;;;;;4971211;28;20393;-87
2022/01/17 00:05:17;;;;;;;9.20;5.28;;;;;;;;;;4946006;29;20035;-87
2022/01/17 00:07:43;;;;;;;12.00;5.35;;;;;;;;;;4938979;28;20035;-87
2022/01/17 00:10:09;;;;;;;10.45;5.45;;;;;;;;;;4956095;28;20047;-87
2022/01/17 00:12:38;;;;;;;11.43;5.28;;;;;;;;;;4965013;28;20067;-87
2022/01/17 00:15:14;;;;;;;9.43;5.97;;;;;;;;;;4958266;28;20078;-87
2022/01/17 00:17:42;;;;;;;10.85;5.88;;;;;;;;;;4943408;28;20027;-86
2022/01/17 00:20:14;;;;;;;10.98;6.55;;;;;;;;;;4960548;28;20049;-85
2022/01/17 00:22:39;;;;;;;9.90;5.93;;;;;;;;;;4968175;28;20031;-87
2022/01/17 00:25:09;;;;;;;12.85;6.25;;;;;;;;;;4960402;28;20031;-86
2022/01/17 00:27:35;;;;;;;11.95;7.13;;;;;;;;;;4958117;28;20058;-86
2022/01/17 00:30:03;;;;;;;12.55;6.72;;;;;;;;;;4955391;28;20020;-85
2022/01/17 00:32:29;;;;;;;12.82;6.93;;;;;;;;;;4968607;28;20430;-86
2022/01/17 00:34:55;;;;;;;15.43;8.60;;;;;;;;;;4961200;28;20023;-86
2022/01/17 00:37:20;;;;;;;14.73;9.15;;;;;;;;;;4960478;28;20047;-87
2022/01/17 00:39:45;;;;;;;17.20;8.88;;;;;;;;;;4968761;28;20070;-87
2022/01/17 00:42:11;;;;;;;18.55;9.45;;;;;;;;;;4959326;28;20027;-85
2022/01/17 00:44:36;;;;;;;23.98;11.00;;;;;;;;;;4961219;28;20046;-86
2022/01/17 00:47:02;;;;;;;17.75;9.52;;;;;;;;;;4961089;28;20015;-85
2022/01/17 00:49:27;;;;;;;19.33;10.90;;;;;;;;;;4971512;29;20055;-83
2022/01/17 00:51:52;;;;;;;19.95;10.25;;;;;;;;;;4966323;28;20062;-88
2022/01/17 00:54:18;;;;;;;18.92;11.05;;;;;;;;;;4965787;28;20358;-87
2022/01/17 00:56:43;;;;;;;19.92;9.50;;;;;;;;;;4965941;28;20033;-88
2022/01/17 00:59:09;;;;;;;21.50;10.15;;;;;;;;;;4961342;28;20039;-87
2022/01/17 01:01:34;;;;;;;21.48;11.02;;;;;;;;;;4963324;29;20401;-86
2022/01/17 01:03:59;;;;;;;21.55;11.55;;;;;;;;;;4947021;29;20036;-88
2022/01/17 01:06:25;;;;;;;19.67;8.07;;;;;;;;;;4960807;28;20099;-84
2022/01/17 01:08:50;;;;;;;12.07;7.97;;;;;;;;;;4982193;28;20039;-82
2022/01/17 01:11:15;;;;;;;25.15;12.93;;;;;;;;;;4980660;28;20009;-87
2022/01/17 01:13:41;;;;;;;17.17;10.35;;;;;;;;;;4960575;29;20078;-87
2022/01/17 01:16:22;;;;;;;20.27;10.65;;;;;;;;;;4970671;28;20503;-89
2022/01/17 01:29:14;;;;;;;30.42;13.82;;;;;;;;;;4962132;28;20061;-87
2022/01/17 01:31:48;;;;;;;22.98;11.45;;;;;;;;;;4966020;28;20023;-87
2022/01/17 01:34:14;;;;;;;28.60;14.57;;;;;;;;;;4943188;29;20019;-87
2022/01/17 01:36:41;;;;;;;23.58;13.27;;;;;;;;;;4943597;29;20090;-87
2022/01/17 01:39:07;;;;;;;27.45;13.50;;;;;;;;;;4957313;28;20101;-88
2022/01/17 01:41:42;;;;;;;25.15;12.77;;;;;;;;;;4969704;28;20038;-84
2022/01/17 01:44:19;;;;;;;24.95;12.88;;;;;;;;;;4959499;28;20042;-88
2022/01/17 01:46:50;;;;;;;26.25;13.20;;;;;;;;;;4946451;29;20106;-85
2022/01/17 01:49:17;;;;;;;23.00;12.60;;;;;;;;;;4952384;28;20433;-86
2022/01/17 01:51:43;;;;;;;25.30;13.23;;;;;;;;;;4978505;28;20485;-87
2022/01/17 01:54:09;;;;;;;23.17;11.90;;;;;;;;;;4978265;28;20042;-85
2022/01/17 01:56:36;;;;;;;27.02;14.68;;;;;;;;;;4979144;28;20033;-88
2022/01/17 01:59:03;;;;;;;22.60;12.45;;;;;;;;;;4965076;28;20474;-88
2022/01/17 02:01:28;;;;;;;26.10;12.52;;;;;;;;;;4965106;28;20023;-88
2022/01/17 02:03:53;;;;;;;28.67;13.95;;;;;;;;;;4959087;29;20385;-87
2022/01/17 02:06:19;;;;;;;29.05;11.70;;;;;;;;;;4956997;28;20078;-88
2022/01/17 02:08:44;;;;;;;25.25;12.55;;;;;;;;;;4941448;29;20023;-88
2022/01/17 02:11:11;;;;;;;26.65;12.80;;;;;;;;;;4959370;29;20078;-87
2022/01/17 02:13:38;;;;;;;26.25;13.00;;;;;;;;;;4958837;29;20031;-87
2022/01/17 02:16:10;;;;;;;23.10;12.15;;;;;;;;;;4966342;28;20046;-88
2022/01/17 02:18:36;;;;;;;25.75;11.73;;;;;;;;;;4959359;29;20493;-88
2022/01/17 02:23:35;;;;;;;26.08;12.73;;;;;;;;;;4959747;29;20038;-86
2022/01/17 02:26:01;;;;;;;20.30;11.50;;;;;;;;;;4942489;29;20117;-87
2022/01/17 02:28:26;;;;;;;27.58;12.80;;;;;;;;;;4963182;28;20497;-89
2022/01/17 02:30:52;;;;;;;22.20;12.70;;;;;;;;;;4971231;28;20023;-89
2022/01/17 02:33:19;;;;;;;26.70;12.95;;;;;;;;;;4960096;29;20023;-87
2022/01/17 02:35:48;;;;;;;24.10;12.65;;;;;;;;;;4960062;28;20378;-89
2022/01/17 02:38:14;;;;;;;28.15;13.05;;;;;;;;;;4959799;29;20114;-89
2022/01/17 02:40:39;;;;;;;24.73;12.23;;;;;;;;;;4961320;28;20046;-87
2022/01/17 02:43:07;;;;;;;24.20;12.38;;;;;;;;;;4960107;28;20030;-88
2022/01/17 02:46:24;;;;;;;29.75;13.65;;;;;;;;;;4948459;28;20039;-87
2022/01/17 02:48:34;;;;;;;23.00;13.30;;;;;;;;;;4962162;28;20027;-88
2022/01/17 02:51:00;;;;;;;21.17;12.15;;;;;;;;;;4947691;29;20027;-88
2022/01/17 02:53:27;;;;;;;25.23;12.95;;;;;;;;;;4965908;29;20042;-88
2022/01/17 02:55:55;;;;;;;27.63;13.45;;;;;;;;;;4975397;28;20122;-86
2022/01/17 02:58:22;;;;;;;24.08;12.75;;;;;;;;;;4966990;28;20031;-86
2022/01/17 03:00:50;;;;;;;27.30;13.35;;;;;;;;;;4968822;28;20033;-87
2022/01/17 03:03:18;;;;;;;22.60;12.30;;;;;;;;;;4977112;28;20035;-85
2022/01/17 03:05:44;;;;;;;27.88;14.20;;;;;;;;;;4977779;28;20027;-86
2022/01/17 03:08:10;;;;;;;26.27;13.65;;;;;;;;;;4977369;28;20030;-86
2022/01/17 03:10:39;;;;;;;29.10;14.18;;;;;;;;;;4976815;28;20065;-85
2022/01/17 03:13:13;;;;;;;30.02;14.93;;;;;;;;;;4956862;28;20110;-84
2022/01/17 03:15:39;;;;;;;27.15;14.55;;;;;;;;;;4965269;28;20054;-85
2022/01/17 03:18:05;;;;;;;32.03;14.85;;;;;;;;;;4975438;28;20465;-87
2022/01/17 03:20:31;;;;;;;36.90;15.57;;;;;;;;;;4976080;28;20039;-85
2022/01/17 03:22:57;;;;;;;29.58;14.75;;;;;;;;;;4958981;28;20070;-86
2022/01/17 03:25:23;;;;;;;28.27;14.20;;;;;;;;;;4975567;28;20466;-85
2022/01/17 03:27:48;;;;;;;29.00;13.80;;;;;;;;;;4953703;28;20027;-85
2022/01/17 03:30:14;;;;;;;28.27;14.35;;;;;;;;;;4959950;28;20469;-86
2022/01/17 03:32:39;;;;;;;28.80;14.05;;;;;;;;;;4940376;29;20034;-86
2022/01/17 03:35:06;;;;;;;34.10;16.13;;;;;;;;;;4965198;29;20087;-86
2022/01/17 03:37:31;;;;;;;30.08;15.13;;;;;;;;;;4969487;29;20323;-85
2022/01/17 03:39:56;;;;;;;31.17;15.43;;;;;;;;;;4969358;29;20094;-88
2022/01/17 03:42:24;;;;;;;30.45;14.55;;;;;;;;;;4960325;29;20038;-89
2022/01/17 03:44:50;;;;;;;31.85;16.42;;;;;;;;;;4945802;28;20470;-87
2022/01/17 03:47:16;;;;;;;35.50;15.40;;;;;;;;;;4963323;28;20030;-86
2022/01/17 03:49:41;;;;;;;26.75;13.73;;;;;;;;;;4959578;29;20031;-86
2022/01/17 03:52:07;;;;;;;29.23;13.93;;;;;;;;;;4942564;29;20031;-87
2022/01/17 03:54:32;;;;;;;31.55;15.65;;;;;;;;;;4949916;28;20083;-83
2022/01/17 03:56:58;;;;;;;32.20;15.68;;;;;;;;;;4978605;28;20022;-85
2022/01/17 03:59:24;;;;;;;32.03;15.48;;;;;;;;;;4976871;28;20053;-84
2022/01/17 04:01:49;;;;;;;28.73;14.32;;;;;;;;;;4939793;29;20110;-87
2022/01/17 04:04:15;;;;;;;23.40;13.10;;;;;;;;;;4956108;28;20034;-86
2022/01/17 04:06:40;;;;;;;31.75;14.32;;;;;;;;;;4955550;29;20066;-84
2022/01/17 04:09:05;;;;;;;29.02;14.75;;;;;;;;;;4951183;28;20045;-86
2022/01/17 04:11:31;;;;;;;30.92;15.27;;;;;;;;;;4954917;29;20389;-86
2022/01/17 04:13:56;;;;;;;30.00;13.77;;;;;;;;;;4956473;28;20090;-85
2022/01/17 04:16:22;;;;;;;28.20;14.93;;;;;;;;;;4949281;28;20050;-86
2022/01/17 04:18:47;;;;;;;28.23;14.13;;;;;;;;;;4974292;28;20034;-87
2022/01/17 04:21:13;;;;;;;24.42;12.27;;;;;;;;;;4976397;28;20039;-88
2022/01/17 04:23:38;;;;;;;27.55;13.50;;;;;;;;;;4969217;28;20027;-86
2022/01/17 04:26:03;;;;;;;21.50;12.77;;;;;;;;;;4971332;28;20393;-86
2022/01/17 04:28:30;;;;;;;24.25;12.93;;;;;;;;;;4961224;28;20045;-87
2022/01/17 04:30:55;;;;;;;26.23;13.25;;;;;;;;;;4967128;28;20019;-86
2022/01/17 04:33:21;;;;;;;29.20;13.65;;;;;;;;;;4957464;28;20027;-86
2022/01/17 04:35:46;;;;;;;22.35;10.70;;;;;;;;;;4974815;28;20041;-87
2022/01/17 04:38:18;;;;;;;25.25;12.63;;;;;;;;;;4974474;28;20035;-87
2022/01/17 04:40:46;;;;;;;24.23;13.02;;;;;;;;;;4957595;28;20027;-85
2022/01/17 04:43:32;;;;;;;23.27;12.50;;;;;;;;;;4957811;28;20027;-85
2022/01/17 04:45:58;;;;;;;27.15;12.35;;;;;;;;;;4947217;28;20035;-85
2022/01/17 04:48:24;;;;;;;24.90;12.00;;;;;;;;;;4938487;29;20029;-86
2022/01/17 04:50:49;;;;;;;21.10;11.55;;;;;;;;;;4937843;28;20110;-85
2022/01/17 04:53:17;;;;;;;22.02;11.27;;;;;;;;;;4974474;28;20102;-85
2022/01/17 04:55:43;;;;;;;18.83;10.32;;;;;;;;;;4975740;28;20026;-85
2022/01/17 04:58:09;;;;;;;20.75;10.77;;;;;;;;;;4969623;28;20042;-87
2022/01/17 05:00:34;;;;;;;19.85;10.57;;;;;;;;;;4962661;28;20018;-86
2022/01/17 05:03:00;;;;;;;20.42;9.73;;;;;;;;;;4947524;28;20023;-85
2022/01/17 05:05:25;;;;;;;18.17;8.48;;;;;;;;;;4940977;29;20521;-85
2022/01/17 05:07:50;;;;;;;18.15;10.32;;;;;;;;;;4964740;28;20055;-86
2022/01/17 05:10:17;;;;;;;17.90;9.27;;;;;;;;;;4965719;28;20496;-85
2022/01/17 05:12:44;;;;;;;20.48;10.00;;;;;;;;;;4962741;28;20019;-87
2022/01/17 05:15:23;;;;;;;15.27;8.85;;;;;;;;;;4957965;28;20024;-87
2022/01/17 05:18:23;;;;;;;24.27;9.45;;;;;;;;;;4975247;28;20481;-86
2022/01/17 05:20:46;;;;;;;13.63;7.75;;;;;;;;;;4978017;28;20019;-85
2022/01/17 05:23:11;;;;;;;15.35;7.88;;;;;;;;;;4978069;28;20030;-82
2022/01/17 05:25:37;;;;;;;16.02;7.47;;;;;;;;;;4960502;28;20117;-86
2022/01/17 05:28:03;;;;;;;11.60;6.28;;;;;;;;;;4973181;28;20050;-84
2022/01/17 05:30:28;;;;;;;15.20;8.57;;;;;;;;;;4966590;28;20023;-86
2022/01/17 05:32:54;;;;;;;14.95;7.65;;;;;;;;;;4941452;29;20027;-85
2022/01/17 05:35:20;;;;;;;14.05;7.68;;;;;;;;;;4940551;29;20486;-85
2022/01/17 05:37:47;;;;;;;12.23;6.68;;;;;;;;;;4957906;29;20500;-85
2022/01/17 05:40:14;;;;;;;10.48;7.07;;;;;;;;;;4969081;28;20027;-85
2022/01/17 05:42:40;;;;;;;13.65;7.10;;;;;;;;;;4968767;28;20038;-84
2022/01/17 05:45:08;;;;;;;16.10;7.70;;;;;;;;;;4988143;28;20022;-83
2022/01/17 05:47:34;;;;;;;12.70;6.68;;;;;;;;;;4971216;28;20007;-84
2022/01/17 05:50:02;;;;;;;15.18;6.75;;;;;;;;;;4965594;28;20109;-84
2022/01/17 05:52:28;;;;;;;12.57;6.82;;;;;;;;;;4971183;28;20027;-84
2022/01/17 05:54:54;;;;;;;10.75;6.30;;;;;;;;;;4980186;28;20061;-81
2022/01/17 05:57:19;;;;;;;13.35;5.80;;;;;;;;;;4980086;28;20035;-81
2022/01/17 05:59:45;;;;;;;15.02;6.80;;;;;;;;;;4964605;28;20059;-84
2022/01/17 06:02:10;;;;;;;9.20;5.78;;;;;;;;;;4980847;28;20015;-83
2022/01/17 06:04:36;;;;;;;12.18;6.57;;;;;;;;;;4980427;28;20016;-81
2022/01/17 06:07:03;;;;;;;11.50;7.20;;;;;;;;;;4972856;28;20004;-86
2022/01/17 06:09:28;;;;;;;10.20;5.85;;;;;;;;;;4959782;28;20117;-84
2022/01/17 06:11:54;;;;;;;9.60;6.00;;;;;;;;;;4957998;28;20062;-88
2022/01/17 06:14:20;;;;;;;13.40;6.78;;;;;;;;;;4938706;29;20023;-87
2022/01/17 06:16:46;;;;;;;13.02;6.68;;;;;;;;;;4947100;28;20051;-87
2022/01/17 06:19:12;;;;;;;10.63;6.00;;;;;;;;;;4960086;28;20034;-87
2022/01/17 06:21:38;;;;;;;9.70;6.43;;;;;;;;;;4960424;28;20046;-87
2022/01/17 06:24:05;;;;;;;10.23;6.40;;;;;;;;;;4959956;28;20027;-87
2022/01/17 06:26:32;;;;;;;10.45;5.55;;;;;;;;;;4963326;28;20031;-88
2022/01/17 06:28:57;;;;;;;9.68;6.50;;;;;;;;;;4962593;28;20027;-89
2022/01/17 06:31:23;;;;;;;7.68;5.32;;;;;;;;;;4948102;29;20030;-88
2022/01/17 06:33:48;;;;;;;10.45;5.70;;;;;;;;;;4963342;28;20027;-87
2022/01/17 06:36:13;;;;;;;9.20;4.75;;;;;;;;;;4954726;29;20027;-88
2022/01/17 06:38:39;;;;;;;9.00;5.95;;;;;;;;;;4963709;28;20057;-88
2022/01/17 06:41:04;;;;;;;11.30;6.30;;;;;;;;;;4965808;28;20027;-84
2022/01/17 06:43:31;;;;;;;12.38;6.68;;;;;;;;;;4981624;28;20043;-83
2022/01/17 06:45:56;;;;;;;11.38;6.43;;;;;;;;;;4971835;28;20042;-86
2022/01/17 06:48:21;;;;;;;12.50;5.72;;;;;;;;;;4963677;28;20056;-88
2022/01/17 06:50:47;;;;;;;10.68;5.60;;;;;;;;;;4952300;28;20019;-89
2022/01/17 06:53:12;;;;;;;9.15;5.55;;;;;;;;;;4967138;28;20038;-86
2022/01/17 06:55:37;;;;;;;10.57;5.65;;;;;;;;;;4946594;29;20027;-86
2022/01/17 06:58:03;;;;;;;10.30;5.95;;;;;;;;;;4958350;28;20531;-88
2022/01/17 07:00:28;;;;;;;8.77;5.45;;;;;;;;;;4959802;28;20078;-88
2022/01/17 07:02:54;;;;;;;11.35;6.28;;;;;;;;;;4953532;28;20072;-84
2022/01/17 07:05:19;;;;;;;10.20;5.47;;;;;;;;;;4957802;29;20102;-86
2022/01/17 07:07:45;;;;;;;8.20;5.38;;;;;;;;;;4957990;28;20054;-86
2022/01/17 07:10:11;;;;;;;7.65;5.25;;;;;;;;;;4957161;28;20050;-84
2022/01/17 07:12:36;;;;;;;10.57;5.90;;;;;;;;;;4957793;28;20023;-85
2022/01/17 07:15:07;;;;;;;10.65;6.13;;;;;;;;;;4959634;28;20042;-87
2022/01/17 07:17:32;;;;;;;11.57;7.03;;;;;;;;;;4957883;28;20113;-87
2022/01/17 07:19:58;;;;;;;10.27;6.22;;;;;;;;;;4958758;28;20035;-87
2022/01/17 07:22:23;;;;;;;9.88;6.28;;;;;;;;;;4957609;28;20031;-85
2022/01/17 07:24:49;;;;;;;10.35;6.22;;;;;;;;;;4958102;28;20030;-89
2022/01/17 07:27:15;;;;;;;9.55;5.22;;;;;;;;;;4962098;28;20042;-86
2022/01/17 07:29:40;;;;;;;8.60;5.50;;;;;;;;;;4967985;28;20022;-88
2022/01/17 07:32:07;;;;;;;8.00;5.20;;;;;;;;;;4957853;28;20039;-85
2022/01/17 07:34:33;;;;;;;8.70;5.63;;;;;;;;;;4946249;29;20398;-87
2022/01/17 07:36:59;;;;;;;8.98;5.18;;;;;;;;;;4955970;28;20038;-86
2022/01/17 07:39:26;;;;;;;9.63;5.63;;;;;;;;;;4944140;29;20048;-87
2022/01/17 07:41:52;;;;;;;8.60;5.60;;;;;;;;;;4958995;28;20054;-86
2022/01/17 07:44:20;;;;;;;6.65;4.63;;;;;;;;;;4974714;28;20086;-82
2022/01/17 07:46:54;;;;;;;9.07;5.57;;;;;;;;;;4966727;28;20019;-82
2022/01/17 07:49:21;;;;;;;12.98;5.30;;;;;;;;;;4973990;28;20030;-86
2022/01/17 07:51:59;;;;;;;6.57;4.43;;;;;;;;;;4956239;28;20055;-84
2022/01/17 07:54:27;;;;;;;7.25;4.90;;;;;;;;;;4957362;28;20027;-85
2022/01/17 07:56:53;;;;;;;12.15;7.05;;;;;;;;;;4956795;28;20088;-83
2022/01/17 07:59:19;;;;;;;8.23;4.43;;;;;;;;;;4962535;28;20031;-86
2022/01/17 08:01:44;;;;;;;9.57;4.65;;;;;;;;;;4958648;28;20072;-85
2022/01/17 08:04:10;;;;;;;8.48;5.07;;;;;;;;;;4958425;28;20031;-85
2022/01/17 08:06:39;;;;;;;8.93;5.70;;;;;;;;;;4958673;28;20042;-86
2022/01/17 08:09:12;;;;;;;9.35;5.20;;;;;;;;;;4959984;28;20494;-87
2022/01/17 08:11:38;;;;;;;9.93;5.70;;;;;;;;;;4957653;28;20390;-87
2022/01/17 08:14:03;;;;;;;8.07;5.18;;;;;;;;;;4958556;28;20019;-87
2022/01/17 08:16:29;;;;;;;10.18;5.88;;;;;;;;;;4945581;29;20024;-87
2022/01/17 08:18:54;;;;;;;7.95;4.55;;;;;;;;;;4956434;28;20023;-86
2022/01/17 08:21:20;;;;;;;7.32;4.88;;;;;;;;;;4968595;28;20034;-88
2022/01/17 08:23:45;;;;;;;6.93;4.32;;;;;;;;;;4941641;29;20028;-88
2022/01/17 08:26:11;;;;;;;8.15;4.70;;;;;;;;;;4960752;28;20039;-87
2022/01/17 08:28:37;;;;;;;6.72;4.32;;;;;;;;;;4973797;28;20031;-85
2022/01/17 08:31:02;;;;;;;8.77;4.97;;;;;;;;;;4968480;28;20038;-85
2022/01/17 08:33:27;;;;;;;6.50;3.95;;;;;;;;;;4988168;28;20026;-82
2022/01/17 08:35:53;;;;;;;6.30;4.30;;;;;;;;;;4980587;28;20098;-86
2022/01/17 08:38:18;;;;;;;6.50;3.67;;;;;;;;;;4979474;28;20031;-87
2022/01/17 08:40:43;;;;;;;5.45;3.78;;;;;;;;;;4980382;28;20033;-86
2022/01/17 08:43:09;;;;;;;6.57;3.92;;;;;;;;;;4966574;28;20552;-85
2022/01/17 08:45:34;;;;;;;6.00;3.80;;;;;;;;;;4960563;28;20058;-87
2022/01/17 08:48:00;;;;;;;5.18;3.83;;;;;;;;;;4958721;28;20474;-86
2022/01/17 08:50:27;;;;;;;6.43;4.18;;;;;;;;;;4958919;28;20421;-86
2022/01/17 08:52:52;;;;;;;8.85;4.60;;;;;;;;;;4957289;28;20034;-86
2022/01/17 08:55:18;;;;;;;7.55;4.50;;;;;;;;;;4959309;28;20023;-86
2022/01/17 08:57:43;;;;;;;7.03;4.30;;;;;;;;;;4961255;28;20023;-84
2022/01/17 09:00:15;;;;;;;8.32;4.60;;;;;;;;;;4962232;28;20049;-86
2022/01/17 09:02:41;;;;;;;8.55;4.72;;;;;;;;;;4955515;28;20031;-85
2022/01/17 09:05:07;;;;;;;7.40;4.40;;;;;;;;;;4954954;28;20034;-84
2022/01/17 09:07:33;;;;;;;5.93;3.80;;;;;;;;;;4956068;28;20027;-85
2022/01/17 09:09:58;;;;;;;7.95;4.20;;;;;;;;;;4957156;28;20380;-85
2022/01/17 09:12:24;;;;;;;5.85;3.75;;;;;;;;;;4946958;28;20646;-87
2022/01/17 09:14:49;;;;;;;6.22;3.30;;;;;;;;;;4943009;28;20019;-83
2022/01/17 09:17:14;;;;;;;6.30;3.70;;;;;;;;;;4954592;28;20027;-84
2022/01/17 09:19:42;;;;;;;7.60;3.90;;;;;;;;;;4957747;28;20594;-88
2022/01/17 09:22:08;;;;;;;6.00;3.85;;;;;;;;;;4954355;28;20038;-86
2022/01/17 09:24:35;;;;;;;7.30;3.65;;;;;;;;;;4952272;28;20019;-86
2022/01/17 09:27:02;;;;;;;4.60;3.20;;;;;;;;;;4938489;28;20083;-84
2022/01/17 09:29:27;;;;;;;6.47;4.30;;;;;;;;;;4955549;28;20035;-84
2022/01/17 09:31:52;;;;;;;7.10;4.03;;;;;;;;;;4964369;28;20031;-89
2022/01/17 09:34:18;;;;;;;7.22;4.53;;;;;;;;;;4980101;28;20026;-83
2022/01/17 09:36:44;;;;;;;7.45;4.63;;;;;;;;;;4994027;28;20014;-83
2022/01/17 09:39:10;;;;;;;7.53;4.60;;;;;;;;;;4982285;28;20496;-89
2022/01/17 09:41:36;;;;;;;8.85;4.80;;;;;;;;;;4977897;28;20026;-88
2022/01/17 09:44:04;;;;;;;9.27;4.10;;;;;;;;;;4961256;28;20030;-89
2022/01/17 09:46:35;;;;;;;6.68;4.40;;;;;;;;;;4968390;28;20031;-86
2022/01/17 09:49:02;;;;;;;8.27;4.82;;;;;;;;;;4974911;28;20038;-88
2022/01/17 09:52:15;;;;;;;6.90;4.50;;;;;;;;;;4942137;29;20023;-87
2022/01/17 09:54:20;;;;;;;6.30;4.07;;;;;;;;;;4951217;28;20066;-85
2022/01/17 09:56:50;;;;;;;8.13;4.78;;;;;;;;;;4948341;29;20058;-86
2022/01/17 09:59:16;;;;;;;9.02;5.18;;;;;;;;;;4975224;28;20027;-86
2022/01/17 10:01:41;;;;;;;9.43;5.63;;;;;;;;;;4964477;28;20041;-87
2022/01/17 10:04:08;;;;;;;10.45;5.03;;;;;;;;;;4958771;29;20027;-86
2022/01/17 10:06:35;;;;;;;8.43;5.22;;;;;;;;;;4959243;29;20469;-85
2022/01/17 10:09:17;;;;;;;10.73;4.53;;;;;;;;;;4959411;29;20035;-88
2022/01/17 10:12:04;;;;;;;6.72;4.32;;;;;;;;;;4946455;29;20038;-88
2022/01/17 10:14:36;;;;;;;7.45;4.32;;;;;;;;;;4951725;28;20019;-87
2022/01/17 10:17:03;;;;;;;12.05;5.13;;;;;;;;;;4958070;28;20034;-88
2022/01/17 10:19:29;;;;;;;6.38;4.10;;;;;;;;;;4961043;29;20031;-88
2022/01/17 10:21:57;;;;;;;6.47;4.43;;;;;;;;;;4958886;29;20031;-86
2022/01/17 10:27:29;;;;;;;5.75;4.03;;;;;;;;;;4957745;28;20042;-86
2022/01/17 10:35:33;;;;;;;9.15;5.10;;;;;;;;;;4958422;29;20403;-88
2022/01/17 10:38:04;;;;;;;8.15;4.90;;;;;;;;;;4957971;29;20055;-85
2022/01/17 10:40:37;;;;;;;7.32;4.72;;;;;;;;;;4957999;29;20027;-85
2022/01/17 10:43:05;;;;;;;7.82;4.80;;;;;;;;;;4957842;29;20032;-87
2022/01/17 10:45:37;;;;;;;9.63;5.07;;;;;;;;;;4967701;28;20481;-87
2022/01/17 10:48:03;;;;;;;;;;;;;;;;;;4964371;28;20023;-87
2022/01/17 10:50:30;;;;;;;6.95;4.15;;;;;;;;;;4964960;28;19910;-87
2022/01/17 10:52:58;;;;;;;13.00;5.15;;;;;;;;;;4956882;28;20030;-85
2022/01/17 10:55:32;;;;;;;8.90;4.60;;;;;;;;;;4938116;29;20123;-88
2022/01/17 10:58:11;;;;;;;9.63;5.30;;;;;;;;;;4956124;28;20019;-85
2022/01/17 11:00:39;;;;;;;8.93;4.53;;;;;;;;;;4938873;29;20112;-85
2022/01/17 11:03:08;;;;;;;7.10;4.18;;;;;;;;;;4938787;29;20027;-83
2022/01/17 11:05:36;;;;;;;6.38;4.22;;;;;;;;;;4956353;29;20057;-87
2022/01/17 11:08:02;;;;;;;5.15;3.53;;;;;;;;;;4955296;28;20125;-86
2022/01/17 11:10:37;;;;;;;6.65;4.68;;;;;;;;;;4972241;28;20384;-85
2022/01/17 11:13:05;;;;;;;5.55;2.22;;;;;;;;;;4966109;28;20080;-85
2022/01/17 11:15:33;;;;;;;3.45;2.70;;;;;;;;;;4956840;28;20026;-84
2022/01/17 11:18:04;;;;;;;5.80;3.90;;;;;;;;;;4960415;28;20501;-87
2022/01/17 11:20:32;;;;;;;5.97;3.60;;;;;;;;;;4940448;29;20027;-86
2022/01/17 11:23:00;;;;;;;10.75;3.83;;;;;;;;;;4961291;28;20097;-87
2022/01/17 11:25:30;;;;;;;7.72;4.70;;;;;;;;;;4951947;28;20026;-85
2022/01/17 11:27:56;;;;;;;9.65;3.45;;;;;;;;;;4966488;28;20397;-87
2022/01/17 11:30:22;;;;;;;8.75;5.18;;;;;;;;;;4966269;28;20022;-85
2022/01/17 11:32:50;;;;;;;7.30;5.07;;;;;;;;;;4943172;29;20029;-84
2022/01/17 11:35:17;;;;;;;7.00;4.30;;;;;;;;;;4944875;28;20034;-81
2022/01/17 11:37:47;;;;;;;6.78;4.93;;;;;;;;;;4961870;28;20023;-87
2022/01/17 11:40:14;;;;;;;9.40;5.20;;;;;;;;;;4957090;29;20031;-86
2022/01/17 11:42:51;;;;;;;3.40;2.50;;;;;;;;;;4940738;29;20051;-87
2022/01/17 11:45:22;;;;;;;6.15;3.75;;;;;;;;;;4964265;28;20027;-85
2022/01/17 11:47:51;;;;;;;7.00;4.88;;;;;;;;;;4972724;28;20022;-89
2022/01/17 11:50:29;;;;;;;5.28;3.20;;;;;;;;;;4955698;28;20026;-84
2022/01/17 11:52:56;;;;;;;3.83;2.55;;;;;;;;;;4956734;28;20106;-85
2022/01/17 11:58:27;;;;;;;3.58;3.20;;;;;;;;;;4968931;28;20106;-88
2022/01/17 12:00:59;;;;;;;5.30;3.72;;;;;;;;;;4971948;28;20035;-88
2022/01/17 12:03:26;;;;;;;;;;;;;;;;;;4977000;28;20071;-86
2022/01/17 12:05:53;;;;;;;4.85;3.38;;;;;;;;;;4976632;28;20529;-87
2022/01/17 12:08:22;;;;;;;3.95;3.45;;;;;;;;;;4954904;28;20482;-88
2022/01/17 12:10:58;;;;;;;5.63;3.83;;;;;;;;;;4960639;28;20037;-87
2022/01/17 12:13:38;;;;;;;5.88;3.72;;;;;;;;;;4958508;28;20034;-87
2022/01/17 12:16:11;;;;;;;5.85;4.22;;;;;;;;;;4968262;28;20023;-87
2022/01/17 12:18:44;;;;;;;6.10;4.35;;;;;;;;;;4956039;28;20020;-85
2022/01/17 12:21:43;;;;;;;4.18;2.90;;;;;;;;;;4971082;28;20034;-86
2022/01/17 12:24:26;;;;;;;3.85;2.83;;;;;;;;;;4968604;28;20031;-83
2022/01/17 12:26:56;;;;;;;5.15;3.83;;;;;;;;;;4957054;28;20035;-88
2022/01/17 12:29:53;;;;;;;12.70;3.85;;;;;;;;;;4967330;28;20026;-87
2022/01/17 12:32:21;;;;;;;6.95;4.20;;;;;;;;;;4960418;28;20027;-87
2022/01/17 12:34:47;;;;;;;7.75;3.63;;;;;;;;;;4960279;29;20061;-88
2022/01/17 12:37:47;;;;;;;5.88;3.88;;;;;;;;;;4960204;29;20536;-87
2022/01/17 12:40:13;;;;;;;7.20;4.15;;;;;;;;;;4959532;29;20028;-88
2022/01/17 12:43:00;;;;;;;5.13;3.63;;;;;;;;;;4957515;28;20082;-87
2022/01/17 12:45:31;;;;;;;4.75;3.38;;;;;;;;;;4949624;29;20031;-88
2022/01/17 12:47:59;;;;;;;7.15;3.78;;;;;;;;;;4959743;28;20034;-88
2022/01/17 12:50:27;;;;;;;9.20;4.32;;;;;;;;;;4960674;28;20027;-87
2022/01/17 12:52:54;;;;;;;5.53;3.80;;;;;;;;;;4959556;28;20061;-86
2022/01/17 12:55:21;;;;;;;7.13;4.63;;;;;;;;;;4960006;28;20034;-87
2022/01/17 12:57:47;;;;;;;5.93;4.20;;;;;;;;;;4967115;28;20090;-87
2022/01/17 13:00:31;;;;;;;7.03;4.50;;;;;;;;;;4956222;28;20426;-86
2022/01/17 13:02:56;;;;;;;6.90;4.30;;;;;;;;;;4976723;28;20027;-85
2022/01/17 13:05:31;;;;;;;6.82;4.38;;;;;;;;;;4974968;28;20410;-88
2022/01/17 13:08:02;;;;;;;6.20;4.20;;;;;;;;;;4961091;28;20023;-86
2022/01/17 13:10:27;;;;;;;5.70;3.97;;;;;;;;;;4949912;28;20022;-88
2022/01/17 13:12:53;;;;;;;6.68;3.95;;;;;;;;;;4943562;28;20034;-85
2022/01/17 13:15:19;;;;;;;6.65;4.25;;;;;;;;;;4974577;28;20102;-88
2022/01/17 13:17:49;;;;;;;6.80;4.53;;;;;;;;;;4959062;28;20392;-88
2022/01/17 13:20:15;;;;;;;8.77;4.25;;;;;;;;;;4980211;28;20023;-86
2022/01/17 13:22:53;;;;;;;9.02;4.28;;;;;;;;;;4957708;29;20087;-88
2022/01/17 13:25:19;;;;;;;13.60;5.20;;;;;;;;;;4975326;28;20038;-89
2022/01/17 13:27:45;;;;;;;10.57;4.53;;;;;;;;;;4964048;28;20027;-88
2022/01/17 13:30:12;;;;;;;7.15;4.00;;;;;;;;;;4967479;28;20024;-88
2022/01/17 13:32:39;;;;;;;11.07;4.97;;;;;;;;;;4942883;29;20031;-85
2022/01/17 13:35:11;;;;;;;10.57;4.90;;;;;;;;;;4959684;29;20478;-87
2022/01/17 13:37:38;;;;;;;10.25;4.43;;;;;;;;;;4966778;28;20034;-85
2022/01/17 13:40:23;;;;;;;8.13;4.40;;;;;;;;;;4961218;28;20429;-88
2022/01/17 13:42:57;;;;;;;10.02;3.25;;;;;;;;;;4973665;28;20058;-85
2022/01/17 13:45:34;;;;;;;6.40;4.00;;;;;;;;;;4962065;28;20602;-87
2022/01/17 13:48:03;;;;;;;7.28;3.40;;;;;;;;;;4961611;28;20030;-88
2022/01/17 13:50:28;;;;;;;5.50;3.47;;;;;;;;;;4978250;28;20037;-86
2022/01/17 13:52:54;;;;;;;6.18;3.42;;;;;;;;;;4962080;28;20101;-89
2022/01/17 13:55:30;;;;;;;7.78;3.95;;;;;;;;;;4958388;28;20030;-87
2022/01/17 13:57:58;;;;;;;5.97;3.00;;;;;;;;;;4960733;28;20485;-86
2022/01/17 14:00:34;;;;;;;6.05;3.40;;;;;;;;;;4971557;28;20041;-86
2022/01/17 14:03:02;;;;;;;4.72;2.97;;;;;;;;;;4979696;28;20033;-85
2022/01/17 14:05:37;;;;;;;5.43;3.72;;;;;;;;;;4980259;28;20026;-85
2022/01/17 14:08:11;;;;;;;4.60;3.00;;;;;;;;;;4979306;28;20046;-87
2022/01/17 14:10:47;;;;;;;5.88;3.00;;;;;;;;;;4977921;28;20030;-87
2022/01/17 14:13:12;;;;;;;5.03;2.72;;;;;;;;;;4978558;28;20038;-86
2022/01/17 14:15:37;;;;;;;3.83;3.10;;;;;;;;;;4972080;28;20044;-88
2022/01/17 14:18:05;;;;;;;4.40;2.55;;;;;;;;;;4977894;28;20074;-88
2022/01/17 14:20:31;;;;;;;5.90;2.75;;;;;;;;;;4977892;28;20054;-87
2022/01/17 14:22:56;;;;;;;4.07;2.47;;;;;;;;;;4961128;28;20374;-88
2022/01/17 14:25:24;;;;;;;5.93;2.40;;;;;;;;;;4954830;28;20035;-87
2022/01/17 14:28:04;;;;;;;3.55;2.42;;;;;;;;;;4942082;28;20031;-89
2022/01/17 14:30:32;;;;;;;4.82;2.70;;;;;;;;;;4956123;28;20015;-88
2022/01/17 14:33:13;;;;;;;2.60;1.90;;;;;;;;;;4957315;28;20472;-87
2022/01/17 14:35:40;;;;;;;5.50;3.83;;;;;;;;;;4941888;29;20042;-89
2022/01/17 14:38:06;;;;;;;5.10;3.33;;;;;;;;;;4952236;28;20030;-88
2022/01/17 14:40:32;;;;;;;3.40;2.78;;;;;;;;;;4955507;28;20688;-84
2022/01/17 14:43:13;;;;;;;7.50;3.45;;;;;;;;;;4957403;28;20031;-86
2022/01/17 14:45:39;;;;;;;10.65;3.25;;;;;;;;;;4955495;28;20023;-86
2022/01/17 14:48:14;;;;;;;5.65;3.58;;;;;;;;;;4961451;28;20023;-86
2022/01/17 14:50:39;;;;;;;5.57;3.10;;;;;;;;;;4975946;28;20487;-86
2022/01/17 14:53:13;;;;;;;5.78;3.80;;;;;;;;;;4960092;28;20099;-83
2022/01/17 15:01:28;;;;;;;7.85;3.90;;;;;;;;;;4965309;28;20162;-87
2022/01/17 15:03:55;;;;;;;4.68;3.20;;;;;;;;;;4936330;29;20520;-89
2022/01/17 15:06:21;;;;;;;5.78;3.45;;;;;;;;;;4937719;29;20042;-86
2022/01/17 15:08:55;;;;;;;4.22;3.30;;;;;;;;;;4923281;29;20062;-87